Time;durP1;ratioP1;P1;durP2;ratioP2;P2;SDS_P1;SDS_P2;PMS_P1;PMS_P2;Temp;Humidity;BMP_temperature;BMP_pressure;BME280_temperature;BME280_humidity;BME280_pressure;Samples;Min_cycle;Max_cycle;Signal;HPM_P1;HPM_P2
2022/12/25 00:01:55;;;;;;;;;5.00;5.00;;;;;;;;5214449;28;8787;-75
2022/12/25 00:04:26;;;;;;;;;3.50;3.50;;;;;;;;5214071;28;8852;-75
2022/12/25 00:06:58;;;;;;;;;5.40;5.40;;;;;;;;5214076;28;9167;-75
2022/12/25 00:09:47;;;;;;;;;6.00;6.00;;;;;;;;5199746;28;8884;-75
2022/12/25 00:12:19;;;;;;;;;5.25;5.25;;;;;;;;5214514;28;8921;-75
2022/12/25 00:14:51;;;;;;;;;7.80;7.80;;;;;;;;5197762;28;10196;-75
2022/12/25 00:17:22;;;;;;;;;6.00;6.00;;;;;;;;5214280;28;8770;-75
2022/12/25 00:20:11;;;;;;;;;5.80;5.80;;;;;;;;5216998;28;8787;-76
2022/12/25 00:22:42;;;;;;;;;6.00;6.00;;;;;;;;5228532;28;8787;-76
2022/12/25 00:25:32;;;;;;;;;14.60;14.60;;;;;;;;5211167;28;8787;-76
2022/12/25 00:28:03;;;;;;;;;6.00;6.00;;;;;;;;5211263;28;8787;-76
2022/12/25 00:30:38;;;;;;;;;10.80;10.80;;;;;;;;5227956;28;8810;-76
2022/12/25 00:33:09;;;;;;;;;15.20;13.80;;;;;;;;5194378;28;8849;-76
2022/12/25 00:35:41;;;;;;;;;9.60;9.60;;;;;;;;5210901;28;9498;-78
2022/12/25 00:38:12;;;;;;;;;7.00;7.00;;;;;;;;5194230;28;8818;-78
2022/12/25 00:40:43;;;;;;;;;7.40;7.40;;;;;;;;5210640;28;8791;-81
2022/12/25 00:43:14;;;;;;;;;6.00;6.00;;;;;;;;5210806;28;8813;-80
2022/12/25 00:45:55;;;;;;;;;6.80;6.80;;;;;;;;5194639;28;9520;-80
2022/12/25 00:48:28;;;;;;;;;7.40;7.40;;;;;;;;5177748;28;8830;-81
2022/12/25 00:51:00;;;;;;;;;7.60;6.80;;;;;;;;5194208;28;8803;-81
2022/12/25 00:53:32;;;;;;;;;7.40;7.40;;;;;;;;5194260;28;8803;-81
2022/12/25 00:56:06;;;;;;;;;13.80;13.60;;;;;;;;5172717;28;8951;-83
2022/12/25 00:58:37;;;;;;;;;9.00;7.40;;;;;;;;5192715;28;8807;-75
2022/12/25 01:01:09;;;;;;;;;6.00;6.00;;;;;;;;5209953;28;8918;-74
2022/12/25 01:03:40;;;;;;;;;5.60;5.60;;;;;;;;5209886;28;8822;-73
2022/12/25 01:06:12;;;;;;;;;10.00;10.00;;;;;;;;5193584;28;8786;-76
2022/12/25 01:11:32;;;;;;;;;6.40;6.40;;;;;;;;5210588;28;8786;-77
2022/12/25 01:14:03;;;;;;;;;6.00;6.00;;;;;;;;5209886;28;8794;-76
2022/12/25 01:16:34;;;;;;;;;8.60;7.60;;;;;;;;5193356;28;8795;-76
2022/12/25 01:19:06;;;;;;;;;8.60;8.60;;;;;;;;5210417;28;8799;-76
2022/12/25 01:21:37;;;;;;;;;7.60;7.60;;;;;;;;5227674;28;8818;-76
2022/12/25 01:24:08;;;;;;;;;5.80;5.80;;;;;;;;5193142;28;8814;-76
2022/12/25 01:26:40;;;;;;;;;6.60;6.60;;;;;;;;5192383;28;8795;-75
2022/12/25 01:29:11;;;;;;;;;5.00;5.00;;;;;;;;5193062;28;8783;-75
2022/12/25 01:31:43;;;;;;;;;9.80;9.80;;;;;;;;5227252;28;8901;-75
2022/12/25 01:34:14;;;;;;;;;10.80;9.80;;;;;;;;5208811;28;8917;-74
2022/12/25 01:36:45;;;;;;;;;6.00;5.40;;;;;;;;5192956;28;8889;-75
2022/12/25 01:39:16;;;;;;;;;4.20;3.00;;;;;;;;5197951;28;8877;-76
2022/12/25 01:41:48;;;;;;;;;6.00;6.00;;;;;;;;5233800;28;8795;-76
2022/12/25 01:44:21;;;;;;;;;4.80;4.80;;;;;;;;5210530;28;8787;-75
2022/12/25 01:47:11;;;;;;;;;6.20;6.20;;;;;;;;5195470;28;8763;-75
2022/12/25 01:49:46;;;;;;;;;8.00;8.00;;;;;;;;5208716;28;8807;-75
2022/12/25 01:52:20;;;;;;;;;5.80;5.80;;;;;;;;5192913;28;8803;-76
2022/12/25 01:54:54;;;;;;;;;6.00;6.00;;;;;;;;5192350;28;8795;-76
2022/12/25 01:57:28;;;;;;;;;6.60;6.60;;;;;;;;5192670;28;8916;-76
2022/12/25 02:00:00;;;;;;;;;6.00;5.20;;;;;;;;5193105;28;8775;-77
2022/12/25 02:02:51;;;;;;;;;5.80;5.80;;;;;;;;5195350;28;8817;-76
2022/12/25 02:05:26;;;;;;;;;6.80;6.80;;;;;;;;5192934;28;8783;-76
2022/12/25 02:08:18;;;;;;;;;6.80;6.80;;;;;;;;5211825;28;8908;-76
2022/12/25 02:10:49;;;;;;;;;6.60;6.60;;;;;;;;5208914;28;8786;-75
2022/12/25 02:13:39;;;;;;;;;7.80;7.80;;;;;;;;5208973;28;8841;-75
2022/12/25 02:16:19;;;;;;;;;6.00;5.80;;;;;;;;5208565;28;8783;-75
2022/12/25 02:18:53;;;;;;;;;6.20;6.20;;;;;;;;5191858;28;8892;-75
2022/12/25 02:21:36;;;;;;;;;5.60;5.60;;;;;;;;5208274;28;8872;-75
2022/12/25 02:24:26;;;;;;;;;7.00;7.00;;;;;;;;5191985;28;8849;-78
2022/12/25 02:26:57;;;;;;;;;1.20;1.20;;;;;;;;5175815;28;8937;-77
2022/12/25 02:29:58;;;;;;;;;2.60;2.60;;;;;;;;5211374;28;8782;-76
2022/12/25 02:34:01;;;;;;;;;2.00;2.00;;;;;;;;5226539;28;8791;-76
2022/12/25 02:35:51;;;;;;;;;1.60;1.60;;;;;;;;5226691;28;8787;-75
2022/12/25 02:38:26;;;;;;;;;4.20;4.20;;;;;;;;5191774;28;8960;-76
2022/12/25 02:41:01;;;;;;;;;3.00;3.00;;;;;;;;5192170;28;8860;-75
2022/12/25 03:07:20;;;;;;;;;1.00;1.00;;;;;;;;5208289;28;9518;-78
2022/12/25 03:12:54;;;;;;;;;2.00;2.00;;;;;;;;5207728;28;8807;-76
2022/12/25 03:18:16;;;;;;;;;2.60;2.60;;;;;;;;5207935;28;8818;-75
2022/12/25 03:32:13;;;;;;;;;1.00;1.00;;;;;;;;5219485;28;8783;-79
2022/12/25 04:37:04;;;;;;;;;1.00;1.00;;;;;;;;5210650;28;8807;-78
2022/12/25 04:39:53;;;;;;;;;1.00;1.00;;;;;;;;5196915;28;8795;-78
2022/12/25 04:42:24;;;;;;;;;0.00;0.00;;;;;;;;5210722;28;8787;-80
2022/12/25 04:44:56;;;;;;;;;1.20;1.20;;;;;;;;5210761;28;9466;-80
2022/12/25 04:47:27;;;;;;;;;0.00;0.00;;;;;;;;5228314;28;8815;-81
2022/12/25 04:49:58;;;;;;;;;1.40;1.40;;;;;;;;5210158;28;8795;-77
2022/12/25 04:52:33;;;;;;;;;0.00;0.00;;;;;;;;5210524;28;8809;-74
2022/12/25 04:55:22;;;;;;;;;0.00;0.00;;;;;;;;5228631;28;8795;-75
2022/12/25 04:57:53;;;;;;;;;1.00;1.00;;;;;;;;5219585;28;8814;-79
2022/12/25 05:00:24;;;;;;;;;0.00;0.00;;;;;;;;5226675;28;8786;-80
2022/12/25 05:02:56;;;;;;;;;2.00;2.00;;;;;;;;5210239;28;8811;-77
2022/12/25 05:05:28;;;;;;;;;1.60;1.60;;;;;;;;5200556;28;8810;-79
2022/12/25 05:07:59;;;;;;;;;1.20;1.20;;;;;;;;5209674;28;8799;-76
2022/12/25 05:10:30;;;;;;;;;0.00;0.00;;;;;;;;5210087;28;8775;-78
2022/12/25 05:13:01;;;;;;;;;1.00;1.00;;;;;;;;5210022;28;8822;-79
2022/12/25 05:15:32;;;;;;;;;0.00;0.00;;;;;;;;5210304;28;8775;-75
2022/12/25 05:18:21;;;;;;;;;0.40;0.40;;;;;;;;5194548;28;8791;-78
2022/12/25 05:20:53;;;;;;;;;0.00;0.00;;;;;;;;5193784;28;8786;-81
2022/12/25 05:23:25;;;;;;;;;0.40;0.40;;;;;;;;5193564;28;8790;-83
2022/12/25 05:25:56;;;;;;;;;0.60;0.60;;;;;;;;5210071;28;8783;-80
2022/12/25 05:28:27;;;;;;;;;0.20;0.00;;;;;;;;5209855;28;8818;-77
2022/12/25 05:30:58;;;;;;;;;0.20;0.20;;;;;;;;5193171;28;8795;-78
2022/12/25 05:33:29;;;;;;;;;2.20;2.20;;;;;;;;5209339;28;9506;-80
2022/12/25 05:36:05;;;;;;;;;2.20;2.20;;;;;;;;5176806;28;8806;-83
2022/12/25 05:38:37;;;;;;;;;1.00;1.00;;;;;;;;5176801;28;8826;-73
2022/12/25 05:41:09;;;;;;;;;1.00;1.00;;;;;;;;5208880;28;8871;-75
2022/12/25 05:43:58;;;;;;;;;0.00;0.00;;;;;;;;5194599;28;8807;-74
2022/12/25 05:46:30;;;;;;;;;1.00;1.00;;;;;;;;5176359;28;8810;-72
2022/12/25 05:49:01;;;;;;;;;1.00;1.00;;;;;;;;5208736;28;8818;-74
2022/12/25 05:51:32;;;;;;;;;1.00;1.00;;;;;;;;5192663;28;8858;-72
2022/12/25 05:54:04;;;;;;;;;4.60;4.60;;;;;;;;5170171;28;8829;-78
2022/12/25 05:56:36;;;;;;;;;2.00;2.00;;;;;;;;5174258;28;8830;-74
2022/12/25 05:59:07;;;;;;;;;7.00;6.20;;;;;;;;5178105;28;8850;-77
2022/12/25 06:01:57;;;;;;;;;8.20;7.60;;;;;;;;5220953;28;8834;-77
2022/12/25 06:04:28;;;;;;;;;9.60;9.60;;;;;;;;5217935;28;8842;-76
2022/12/25 06:06:59;;;;;;;;;5.80;5.80;;;;;;;;5199289;28;8791;-75
2022/12/25 06:09:49;;;;;;;;;9.00;7.00;;;;;;;;5207336;28;8953;-77
2022/12/25 06:12:20;;;;;;;;;19.40;18.80;;;;;;;;5207848;28;8775;-80
2022/12/25 06:14:51;;;;;;;;;14.80;14.80;;;;;;;;5206925;28;8803;-76
2022/12/25 06:17:31;;;;;;;;;7.40;7.40;;;;;;;;5206318;28;8798;-78
2022/12/25 06:20:20;;;;;;;;;1.00;1.00;;;;;;;;5222915;28;8922;-78
2022/12/25 06:22:51;;;;;;;;;7.00;7.00;;;;;;;;5222014;28;8949;-75
2022/12/25 06:25:22;;;;;;;;;8.40;8.40;;;;;;;;5204636;28;8803;-75
2022/12/25 06:27:53;;;;;;;;;6.60;6.60;;;;;;;;5188555;28;8810;-76
2022/12/25 06:30:25;;;;;;;;;7.00;7.00;;;;;;;;5186020;28;9008;-78
2022/12/25 06:32:58;;;;;;;;;5.00;5.00;;;;;;;;5184071;28;8806;-77
2022/12/25 06:35:29;;;;;;;;;11.40;11.40;;;;;;;;5205552;28;8782;-77
2022/12/25 06:38:00;;;;;;;;;10.40;10.40;;;;;;;;5205608;28;8829;-77
2022/12/25 06:40:32;;;;;;;;;13.00;13.00;;;;;;;;5206491;28;8798;-77
2022/12/25 06:43:03;;;;;;;;;2.80;1.80;;;;;;;;5189649;28;8879;-76
2022/12/25 06:45:35;;;;;;;;;8.40;8.40;;;;;;;;5206530;28;8791;-76
2022/12/25 06:48:06;;;;;;;;;11.60;11.60;;;;;;;;5206677;28;8830;-76
2022/12/25 06:50:41;;;;;;;;;14.80;12.40;;;;;;;;5207757;28;8771;-76
2022/12/25 06:53:12;;;;;;;;;32.80;24.00;;;;;;;;5191864;28;9597;-76
2022/12/25 06:55:43;;;;;;;;;20.80;20.80;;;;;;;;5207998;28;8815;-76
2022/12/25 06:58:33;;;;;;;;;20.60;19.60;;;;;;;;5211296;28;8962;-75
2022/12/25 07:01:14;;;;;;;;;28.40;27.80;;;;;;;;5175587;28;8775;-75
2022/12/25 07:03:46;;;;;;;;;39.20;37.80;;;;;;;;5175031;28;8825;-75
2022/12/25 07:06:18;;;;;;;;;27.40;27.40;;;;;;;;5191293;28;8807;-75
2022/12/25 07:08:49;;;;;;;;;31.00;30.00;;;;;;;;5208001;28;8806;-75
2022/12/25 07:11:20;;;;;;;;;48.60;40.20;;;;;;;;5207780;28;9548;-74
2022/12/25 07:13:51;;;;;;;;;64.80;52.40;;;;;;;;5190657;28;8787;-74
2022/12/25 07:16:22;;;;;;;;;51.80;43.80;;;;;;;;5207890;28;9514;-76
2022/12/25 07:18:53;;;;;;;;;43.50;40.00;;;;;;;;5174817;28;8839;-76
2022/12/25 07:21:24;;;;;;;;;46.80;41.00;;;;;;;;5207592;28;8895;-76
2022/12/25 07:23:56;;;;;;;;;45.20;39.00;;;;;;;;5207221;28;9778;-76
2022/12/25 07:26:27;;;;;;;;;62.80;47.40;;;;;;;;5207498;28;8798;-77
2022/12/25 07:28:58;;;;;;;;;42.00;37.80;;;;;;;;5196988;28;8828;-76
2022/12/25 07:31:47;;;;;;;;;32.80;31.20;;;;;;;;5221413;28;8816;-75
2022/12/25 07:34:18;;;;;;;;;20.20;20.20;;;;;;;;5228152;28;8832;-76
2022/12/25 07:36:49;;;;;;;;;27.80;27.80;;;;;;;;5228991;28;8799;-76
2022/12/25 07:39:20;;;;;;;;;28.60;25.80;;;;;;;;5194589;28;8822;-76
2022/12/25 07:41:51;;;;;;;;;26.40;26.40;;;;;;;;5211320;28;8799;-74
2022/12/25 07:44:22;;;;;;;;;32.00;31.20;;;;;;;;5200644;28;8791;-75
2022/12/25 07:46:53;;;;;;;;;35.60;35.00;;;;;;;;5246659;28;8819;-75
2022/12/25 07:49:24;;;;;;;;;52.80;44.00;;;;;;;;5228409;28;8797;-75
2022/12/25 07:51:55;;;;;;;;;33.25;31.50;;;;;;;;5190498;28;8877;-78
2022/12/25 07:54:27;;;;;;;;;40.20;38.80;;;;;;;;5180447;28;9611;-73
2022/12/25 07:56:58;;;;;;;;;52.40;43.80;;;;;;;;5210949;28;8823;-74
2022/12/25 07:59:29;;;;;;;;;55.60;45.60;;;;;;;;5175375;28;9531;-74
2022/12/25 08:02:00;;;;;;;;;45.80;42.40;;;;;;;;5193282;28;9612;-74
2022/12/25 08:04:31;;;;;;;;;60.80;51.00;;;;;;;;5209621;28;8925;-74
2022/12/25 08:07:02;;;;;;;;;47.00;42.25;;;;;;;;5193864;28;8786;-73
2022/12/25 08:09:34;;;;;;;;;35.50;32.75;;;;;;;;5210506;28;11498;-75
2022/12/25 08:12:23;;;;;;;;;38.20;37.40;;;;;;;;5213968;28;8795;-74
2022/12/25 08:14:54;;;;;;;;;24.50;24.25;;;;;;;;5210741;28;8786;-73
2022/12/25 08:17:25;;;;;;;;;30.25;28.00;;;;;;;;5210708;28;8861;-73
2022/12/25 08:19:56;;;;;;;;;34.50;32.75;;;;;;;;5210646;28;9435;-74
2022/12/25 08:22:27;;;;;;;;;26.60;26.60;;;;;;;;5178146;28;8990;-72
2022/12/25 08:24:58;;;;;;;;;34.00;30.25;;;;;;;;5193426;28;9577;-72
2022/12/25 08:27:47;;;;;;;;;31.80;30.80;;;;;;;;5211448;28;9227;-72
2022/12/25 08:30:18;;;;;;;;;36.40;35.20;;;;;;;;5227677;28;8818;-72
2022/12/25 08:32:49;;;;;;;;;9.60;7.40;;;;;;;;5193670;28;8811;-73
2022/12/25 08:35:38;;;;;;;;;24.00;21.80;;;;;;;;5212571;28;8992;-73
2022/12/25 08:38:09;;;;;;;;;24.75;24.75;;;;;;;;5209672;28;8937;-73
2022/12/25 08:40:40;;;;;;;;;22.50;22.50;;;;;;;;5193162;28;8798;-73
2022/12/25 08:43:11;;;;;;;;;18.00;17.00;;;;;;;;5208494;28;11644;-72
2022/12/25 08:45:42;;;;;;;;;10.50;10.50;;;;;;;;5209738;28;8799;-74
2022/12/25 08:48:31;;;;;;;;;22.40;21.00;;;;;;;;5208601;28;12137;-73
2022/12/25 08:51:22;;;;;;;;;23.00;22.80;;;;;;;;5209932;28;8814;-71
2022/12/25 08:53:56;;;;;;;;;19.60;19.00;;;;;;;;5210184;28;8799;-74
2022/12/25 08:56:46;;;;;;;;;16.60;16.60;;;;;;;;5209581;28;9645;-74
2022/12/25 08:59:17;;;;;;;;;17.20;17.20;;;;;;;;5209438;28;8818;-74
2022/12/25 09:01:48;;;;;;;;;11.50;11.50;;;;;;;;5208982;28;8845;-73
2022/12/25 09:04:19;;;;;;;;;18.00;18.00;;;;;;;;5209185;28;8948;-75
2022/12/25 09:07:12;;;;;;;;;22.20;20.80;;;;;;;;5208686;28;8819;-74
2022/12/25 09:09:43;;;;;;;;;19.20;19.20;;;;;;;;5192803;28;8783;-74
2022/12/25 09:12:33;;;;;;;;;19.00;18.00;;;;;;;;5226355;28;8783;-72
2022/12/25 09:15:04;;;;;;;;;23.50;23.50;;;;;;;;5208813;28;8845;-73
2022/12/25 09:17:35;;;;;;;;;24.00;23.00;;;;;;;;5192285;28;11521;-75
2022/12/25 09:20:07;;;;;;;;;28.50;27.75;;;;;;;;5193850;28;8787;-74
2022/12/25 09:22:38;;;;;;;;;29.40;29.40;;;;;;;;5193179;28;11418;-72
2022/12/25 09:25:09;;;;;;;;;32.25;30.00;;;;;;;;5180274;28;8940;-72
2022/12/25 09:27:42;;;;;;;;;20.25;20.25;;;;;;;;5221382;28;10123;-72
2022/12/25 09:30:13;;;;;;;;;15.60;15.60;;;;;;;;5192026;28;9799;-73
2022/12/25 09:32:44;;;;;;;;;16.40;15.80;;;;;;;;5192417;28;8793;-73
2022/12/25 09:35:17;;;;;;;;;19.50;19.50;;;;;;;;5209103;28;8807;-72
2022/12/25 09:37:48;;;;;;;;;14.60;14.40;;;;;;;;5209608;28;8908;-72
2022/12/25 09:40:28;;;;;;;;;14.75;14.75;;;;;;;;5209942;28;8807;-73
2022/12/25 09:43:02;;;;;;;;;14.00;14.00;;;;;;;;5192269;28;11612;-73
2022/12/25 09:45:35;;;;;;;;;16.40;16.40;;;;;;;;5225767;28;8810;-72
2022/12/25 09:48:10;;;;;;;;;20.00;19.40;;;;;;;;5191179;28;8822;-72
2022/12/25 09:50:44;;;;;;;;;20.60;20.60;;;;;;;;5177357;28;8793;-73
2022/12/25 09:53:18;;;;;;;;;22.00;21.40;;;;;;;;5208041;28;8810;-74
2022/12/25 09:56:01;;;;;;;;;30.20;29.60;;;;;;;;5207693;28;8814;-72
2022/12/25 09:58:33;;;;;;;;;31.00;31.00;;;;;;;;5193479;28;8822;-73
2022/12/25 10:01:14;;;;;;;;;23.80;22.20;;;;;;;;5206145;28;9505;-75
2022/12/25 10:04:08;;;;;;;;;22.40;22.00;;;;;;;;5223309;28;8932;-75
2022/12/25 10:07:12;;;;;;;;;35.40;32.40;;;;;;;;5181496;28;8841;-73
2022/12/25 10:09:50;;;;;;;;;31.00;31.00;;;;;;;;5199774;28;8822;-70
2022/12/25 10:12:31;;;;;;;;;37.00;35.80;;;;;;;;5206385;28;8798;-69
2022/12/25 10:15:04;;;;;;;;;37.20;37.00;;;;;;;;5208320;28;8818;-69
2022/12/25 10:17:35;;;;;;;;;34.60;32.80;;;;;;;;5207922;28;8814;-68
2022/12/25 10:20:09;;;;;;;;;29.75;28.75;;;;;;;;5208069;28;8779;-69
2022/12/25 10:22:43;;;;;;;;;27.60;27.40;;;;;;;;5208253;28;8767;-70
2022/12/25 10:25:15;;;;;;;;;21.20;21.20;;;;;;;;5191362;28;8779;-69
2022/12/25 10:27:49;;;;;;;;;27.20;25.60;;;;;;;;5191134;28;8795;-69
2022/12/25 10:30:22;;;;;;;;;21.60;21.20;;;;;;;;5208414;28;8775;-69
2022/12/25 10:32:55;;;;;;;;;22.60;22.60;;;;;;;;5190893;28;8909;-69
2022/12/25 10:35:28;;;;;;;;;27.40;26.80;;;;;;;;5174855;28;8822;-69
2022/12/25 10:38:00;;;;;;;;;31.00;31.00;;;;;;;;5207558;28;8826;-69
2022/12/25 10:40:37;;;;;;;;;65.20;51.40;;;;;;;;5189345;28;8812;-70
2022/12/25 10:43:17;;;;;;;;;49.60;43.80;;;;;;;;5205460;28;9778;-73
2022/12/25 10:45:48;;;;;;;;;50.60;45.00;;;;;;;;5223654;28;8910;-71
2022/12/25 10:48:21;;;;;;;;;65.60;56.00;;;;;;;;5205405;28;8831;-70
2022/12/25 10:51:11;;;;;;;;;25.00;24.60;;;;;;;;5191502;28;8961;-70
2022/12/25 10:53:42;;;;;;;;;23.80;23.60;;;;;;;;5204898;28;8827;-70
2022/12/25 10:56:31;;;;;;;;;11.00;11.00;;;;;;;;5223399;28;8798;-70
2022/12/25 10:59:06;;;;;;;;;22.80;22.80;;;;;;;;5205594;28;8861;-71
2022/12/25 11:01:37;;;;;;;;;10.00;10.00;;;;;;;;5223437;28;8815;-69
2022/12/25 11:04:27;;;;;;;;;49.20;45.00;;;;;;;;5201161;28;8931;-69
2022/12/25 11:07:06;;;;;;;;;18.20;18.20;;;;;;;;5200798;28;9986;-70
2022/12/25 11:09:58;;;;;;;;;9.40;9.40;;;;;;;;5187273;28;8835;-70
2022/12/25 11:12:48;;;;;;;;;21.80;21.80;;;;;;;;5187457;28;8887;-71
2022/12/25 11:15:28;;;;;;;;;28.40;28.40;;;;;;;;5201246;28;8864;-71
2022/12/25 11:17:59;;;;;;;;;21.00;21.00;;;;;;;;5197589;28;8890;-72
2022/12/25 11:20:59;;;;;;;;;16.00;16.00;;;;;;;;5183196;28;8835;-72
2022/12/25 11:23:31;;;;;;;;;11.00;11.00;;;;;;;;5167203;28;8931;-71
2022/12/25 11:26:06;;;;;;;;;22.60;18.20;;;;;;;;5186833;28;8882;-73
2022/12/25 11:28:39;;;;;;;;;0.40;0.40;;;;;;;;5183824;28;8921;-72
2022/12/25 11:31:11;;;;;;;;;17.40;17.40;;;;;;;;5184401;28;8810;-72
2022/12/25 11:33:45;;;;;;;;;27.40;25.60;;;;;;;;5167733;28;9555;-70
2022/12/25 11:36:49;;;;;;;;;16.20;16.20;;;;;;;;5189061;28;8800;-72
2022/12/25 11:39:30;;;;;;;;;18.20;17.80;;;;;;;;5170912;28;8962;-73
2022/12/25 11:42:02;;;;;;;;;20.60;20.60;;;;;;;;5204413;28;8792;-71
2022/12/25 11:44:51;;;;;;;;;5.75;5.75;;;;;;;;5170936;28;8788;-71
2022/12/25 11:47:25;;;;;;;;;11.80;11.80;;;;;;;;5203512;28;8792;-72
2022/12/25 11:49:58;;;;;;;;;9.60;9.60;;;;;;;;5186848;28;8822;-72
2022/12/25 11:52:32;;;;;;;;;10.00;10.00;;;;;;;;5203468;28;8792;-72
2022/12/25 11:55:16;;;;;;;;;26.80;26.80;;;;;;;;5203559;28;9507;-71
2022/12/25 11:57:52;;;;;;;;;32.40;30.40;;;;;;;;5170640;28;8818;-71
2022/12/25 12:00:44;;;;;;;;;20.20;18.80;;;;;;;;5204802;28;8789;-73
2022/12/25 12:03:21;;;;;;;;;75.20;58.20;;;;;;;;5186568;28;9705;-70
2022/12/25 12:06:03;;;;;;;;;56.00;46.00;;;;;;;;5203164;28;8777;-70
2022/12/25 12:08:35;;;;;;;;;42.80;38.60;;;;;;;;5170155;28;8930;-71
2022/12/25 12:11:20;;;;;;;;;48.60;43.40;;;;;;;;5187210;28;8878;-70
2022/12/25 12:13:57;;;;;;;;;62.40;48.60;;;;;;;;5172950;28;8795;-71
2022/12/25 12:16:28;;;;;;;;;35.60;34.40;;;;;;;;5188060;28;8816;-71
2022/12/25 12:19:09;;;;;;;;;74.20;57.00;;;;;;;;5188961;28;8834;-72
2022/12/25 12:21:42;;;;;;;;;64.60;53.60;;;;;;;;5191722;28;8803;-70
2022/12/25 12:24:17;;;;;;;;;56.80;48.20;;;;;;;;5194556;28;8804;-71
2022/12/25 12:26:59;;;;;;;;;43.60;41.60;;;;;;;;5217437;28;8776;-71
2022/12/25 12:29:36;;;;;;;;;29.80;27.80;;;;;;;;5215935;28;8796;-72
2022/12/25 12:32:21;;;;;;;;;21.80;21.80;;;;;;;;5212006;28;8773;-71
2022/12/25 12:34:54;;;;;;;;;42.20;40.40;;;;;;;;5190438;28;8784;-71
2022/12/25 12:37:47;;;;;;;;;27.80;27.80;;;;;;;;5205995;28;8807;-71
2022/12/25 12:40:28;;;;;;;;;31.40;31.20;;;;;;;;5208290;28;8787;-73
2022/12/25 12:43:00;;;;;;;;;4.00;4.00;;;;;;;;5173469;28;8830;-72
2022/12/25 12:46:00;;;;;;;;;9.40;9.00;;;;;;;;5187892;28;8806;-71
2022/12/25 12:48:54;;;;;;;;;5.00;5.00;;;;;;;;5194587;28;8963;-70
2022/12/25 12:51:28;;;;;;;;;13.80;13.80;;;;;;;;5206324;28;9539;-71
2022/12/25 12:54:19;;;;;;;;;23.40;22.80;;;;;;;;5205860;28;8847;-70
2022/12/25 12:56:58;;;;;;;;;23.80;21.40;;;;;;;;5205989;28;8784;-70
2022/12/25 12:59:36;;;;;;;;;20.60;20.00;;;;;;;;5189229;28;9531;-70
2022/12/25 13:02:25;;;;;;;;;22.00;20.00;;;;;;;;5189456;28;8837;-70
2022/12/25 13:05:02;;;;;;;;;24.40;23.00;;;;;;;;5189453;28;8823;-70
2022/12/25 13:07:42;;;;;;;;;22.40;22.40;;;;;;;;5206814;28;8796;-71
2022/12/25 13:10:13;;;;;;;;;17.60;16.40;;;;;;;;5205604;28;8809;-70
2022/12/25 13:12:45;;;;;;;;;14.75;14.75;;;;;;;;5205461;28;8789;-71
2022/12/25 13:15:17;;;;;;;;;31.20;28.40;;;;;;;;5172440;28;11531;-71
2022/12/25 13:18:10;;;;;;;;;26.60;26.20;;;;;;;;5190670;28;8820;-72
2022/12/25 13:21:03;;;;;;;;;29.40;29.00;;;;;;;;5220314;28;8844;-69
2022/12/25 13:23:37;;;;;;;;;29.80;28.80;;;;;;;;5203857;28;8804;-70
2022/12/25 13:26:14;;;;;;;;;19.60;19.60;;;;;;;;5168711;28;8874;-71
2022/12/25 13:28:45;;;;;;;;;33.00;31.60;;;;;;;;5182298;28;8824;-71
2022/12/25 13:31:24;;;;;;;;;19.80;19.60;;;;;;;;5172545;28;8842;-71
2022/12/25 13:33:57;;;;;;;;;19.20;19.20;;;;;;;;5196173;28;9632;-71
2022/12/25 13:36:33;;;;;;;;;28.80;28.40;;;;;;;;5185885;28;8828;-73
2022/12/25 13:39:07;;;;;;;;;17.80;16.60;;;;;;;;5201936;28;9021;-74
2022/12/25 13:44:32;;;;;;;;;18.20;17.80;;;;;;;;5186424;28;8817;-74
2022/12/25 13:47:23;;;;;;;;;19.50;17.00;;;;;;;;5187579;28;8776;-72
2022/12/25 13:50:00;;;;;;;;;25.00;23.80;;;;;;;;5187376;28;11477;-73
2022/12/25 13:52:35;;;;;;;;;23.00;23.00;;;;;;;;5186403;28;8835;-72
2022/12/25 13:55:11;;;;;;;;;29.60;28.40;;;;;;;;5187492;28;8792;-73
2022/12/25 13:58:02;;;;;;;;;21.40;21.40;;;;;;;;5202628;28;8954;-73
2022/12/25 14:01:06;;;;;;;;;17.20;17.20;;;;;;;;5189531;28;8804;-72
2022/12/25 14:03:42;;;;;;;;;17.80;17.40;;;;;;;;5204115;28;8809;-73
2022/12/25 14:06:23;;;;;;;;;19.80;19.00;;;;;;;;5204683;28;8800;-72
2022/12/25 14:08:55;;;;;;;;;18.80;17.60;;;;;;;;5204928;28;8808;-72
2022/12/25 14:11:27;;;;;;;;;25.00;24.20;;;;;;;;5203759;28;8784;-73
2022/12/25 14:14:04;;;;;;;;;21.00;21.00;;;;;;;;5172124;28;8814;-71
2022/12/25 14:16:42;;;;;;;;;20.00;19.40;;;;;;;;5188483;28;8808;-71
2022/12/25 14:19:32;;;;;;;;;17.20;16.40;;;;;;;;5205240;28;8889;-72
2022/12/25 14:22:23;;;;;;;;;17.00;16.60;;;;;;;;5187099;28;8849;-73
2022/12/25 14:24:54;;;;;;;;;29.60;29.20;;;;;;;;5170725;28;8938;-71
2022/12/25 14:27:27;;;;;;;;;29.80;29.20;;;;;;;;5203898;28;8942;-72
2022/12/25 14:29:59;;;;;;;;;13.00;13.00;;;;;;;;5204012;28;9543;-71
2022/12/25 14:32:37;;;;;;;;;13.00;13.00;;;;;;;;5204999;28;8850;-72
2022/12/25 14:35:09;;;;;;;;;20.80;20.00;;;;;;;;5187502;28;8827;-72
2022/12/25 14:37:41;;;;;;;;;20.20;19.60;;;;;;;;5203003;28;8816;-72
2022/12/25 14:40:27;;;;;;;;;15.60;15.60;;;;;;;;5186390;28;8820;-71
2022/12/25 14:42:58;;;;;;;;;12.80;12.40;;;;;;;;5187677;28;9549;-70
2022/12/25 14:45:31;;;;;;;;;6.50;6.50;;;;;;;;5203995;28;8804;-73
2022/12/25 14:48:13;;;;;;;;;7.20;6.80;;;;;;;;5186845;28;12240;-73
2022/12/25 14:50:54;;;;;;;;;11.80;11.80;;;;;;;;5188045;28;8839;-71
2022/12/25 14:53:36;;;;;;;;;8.00;8.00;;;;;;;;5204653;28;8803;-72
2022/12/25 14:56:28;;;;;;;;;3.40;3.40;;;;;;;;5184694;28;8787;-73
2022/12/25 14:58:59;;;;;;;;;14.60;12.40;;;;;;;;5163322;28;9653;-71
2022/12/25 15:01:38;;;;;;;;;10.20;10.20;;;;;;;;5203236;28;8823;-71
2022/12/25 15:04:09;;;;;;;;;6.80;6.80;;;;;;;;5201230;28;8868;-71
2022/12/25 15:07:05;;;;;;;;;2.00;2.00;;;;;;;;5202747;28;8788;-71
2022/12/25 15:09:55;;;;;;;;;13.60;13.60;;;;;;;;5201774;28;9524;-75
2022/12/25 15:12:26;;;;;;;;;20.60;20.60;;;;;;;;5202040;28;8830;-71
2022/12/25 15:14:57;;;;;;;;;14.00;14.00;;;;;;;;5201979;28;8793;-71
2022/12/25 15:17:29;;;;;;;;;28.80;28.80;;;;;;;;5201889;28;11519;-73
2022/12/25 15:20:01;;;;;;;;;32.40;30.20;;;;;;;;5203375;28;8918;-70
2022/12/25 15:22:32;;;;;;;;;13.00;13.00;;;;;;;;5185638;28;8800;-70
2022/12/25 15:25:03;;;;;;;;;3.20;3.20;;;;;;;;5187637;28;8812;-71
2022/12/25 15:27:35;;;;;;;;;22.60;22.60;;;;;;;;5203765;28;8780;-70
2022/12/25 15:30:06;;;;;;;;;1.40;1.40;;;;;;;;5187317;28;8800;-71
2022/12/25 15:32:37;;;;;;;;;0.00;0.00;;;;;;;;5202097;28;8836;-70
2022/12/25 15:35:17;;;;;;;;;11.60;11.20;;;;;;;;5203698;28;8776;-73
2022/12/25 15:37:48;;;;;;;;;27.20;26.40;;;;;;;;5186845;28;8812;-72
2022/12/25 15:40:20;;;;;;;;;11.25;10.50;;;;;;;;5203445;28;8784;-72
2022/12/25 15:42:51;;;;;;;;;9.80;9.00;;;;;;;;5203267;28;11492;-72
2022/12/25 15:45:23;;;;;;;;;22.80;22.80;;;;;;;;5203010;28;8799;-72
2022/12/25 15:47:55;;;;;;;;;0.80;0.80;;;;;;;;5203304;28;8858;-72
2022/12/25 15:50:26;;;;;;;;;0.00;0.00;;;;;;;;5184960;28;8792;-71
2022/12/25 15:52:57;;;;;;;;;2.00;2.00;;;;;;;;5205042;28;8777;-72
2022/12/25 15:55:28;;;;;;;;;5.40;4.20;;;;;;;;5207504;28;8842;-71
2022/12/25 15:57:59;;;;;;;;;11.00;9.40;;;;;;;;5190791;28;9514;-71
2022/12/25 16:00:30;;;;;;;;;21.75;18.50;;;;;;;;5207299;28;8804;-71
2022/12/25 16:03:19;;;;;;;;;7.00;7.00;;;;;;;;5207462;28;8834;-71
2022/12/25 16:05:50;;;;;;;;;32.00;26.40;;;;;;;;5174412;28;8950;-72
2022/12/25 16:08:39;;;;;;;;;19.20;16.60;;;;;;;;5193207;28;8826;-72
2022/12/25 16:11:10;;;;;;;;;54.00;45.00;;;;;;;;5191188;28;9534;-71
2022/12/25 16:13:42;;;;;;;;;25.75;24.00;;;;;;;;5190395;28;8812;-71
2022/12/25 16:16:13;;;;;;;;;8.00;8.00;;;;;;;;5208303;28;8776;-72
2022/12/25 16:18:44;;;;;;;;;11.40;10.20;;;;;;;;5190197;28;8890;-72
2022/12/25 16:21:17;;;;;;;;;21.75;21.00;;;;;;;;5206156;28;8816;-73
2022/12/25 16:23:48;;;;;;;;;22.60;22.60;;;;;;;;5206739;28;12187;-72
2022/12/25 16:26:19;;;;;;;;;8.00;8.00;;;;;;;;5206442;28;8796;-72
2022/12/25 16:28:50;;;;;;;;;8.00;8.00;;;;;;;;5206524;28;8843;-70
2022/12/25 16:31:21;;;;;;;;;28.50;27.75;;;;;;;;5189709;28;11412;-70
2022/12/25 16:33:52;;;;;;;;;16.00;14.50;;;;;;;;5206539;28;11507;-72
2022/12/25 16:36:23;;;;;;;;;14.20;13.20;;;;;;;;5190331;28;8792;-70
2022/12/25 16:38:54;;;;;;;;;12.25;12.25;;;;;;;;5205959;28;8844;-72
2022/12/25 16:41:25;;;;;;;;;12.00;12.00;;;;;;;;5206223;28;11501;-73
2022/12/25 16:43:56;;;;;;;;;15.20;15.20;;;;;;;;5189780;28;8788;-73
2022/12/25 16:46:27;;;;;;;;;9.25;9.25;;;;;;;;5206272;28;8900;-72
2022/12/25 16:48:58;;;;;;;;;6.50;6.00;;;;;;;;5206569;28;10422;-73
2022/12/25 16:51:30;;;;;;;;;8.80;8.20;;;;;;;;5205054;28;9447;-72
2022/12/25 16:54:29;;;;;;;;;1.80;1.80;;;;;;;;5192291;28;8811;-71
2022/12/25 16:57:00;;;;;;;;;1.80;1.80;;;;;;;;5189740;28;8812;-70
2022/12/25 16:59:31;;;;;;;;;0.75;0.75;;;;;;;;5206230;28;9622;-71
2022/12/25 17:02:02;;;;;;;;;13.40;12.20;;;;;;;;5205293;28;9864;-72
2022/12/25 17:04:33;;;;;;;;;8.20;8.20;;;;;;;;5205553;28;8836;-72
2022/12/25 17:07:22;;;;;;;;;4.60;4.60;;;;;;;;5206380;28;8769;-72
2022/12/25 17:09:55;;;;;;;;;2.00;2.00;;;;;;;;5205764;28;8806;-72
2022/12/25 17:12:26;;;;;;;;;17.20;15.80;;;;;;;;5205559;28;8865;-70
2022/12/25 17:14:57;;;;;;;;;3.00;3.00;;;;;;;;5205534;28;8796;-73
2022/12/25 17:17:28;;;;;;;;;2.00;2.00;;;;;;;;5189188;28;8796;-71
2022/12/25 17:19:59;;;;;;;;;1.00;1.00;;;;;;;;5206902;28;8808;-70
2022/12/25 17:22:32;;;;;;;;;2.40;2.40;;;;;;;;5207137;28;8796;-72